Time,TemperatureF,DewpointF,PressureIn,WindDirection,WindDirectionDegrees,WindSpeedMPH,WindSpeedGustMPH,Humidity,HourlyPrecipIn,Conditions,Clouds,dailyrainin,SoftwareType,DateUTC
2013-05-05 00:01:00,52.9,52.9,29.69,ESE,106,0.0,2.0,100,0.00,,,0.00,Wunderground v.1.15,2013-05-05 07:01:00,
2013-05-05 00:06:00,52.9,52.9,29.69,ESE,106,0.0,3.0,100,0.00,,,0.00,Wunderground v.1.15,2013-05-05 07:06:00,
2013-05-05 00:11:00,52.9,52.9,29.69,ESE,105,0.0,1.0,100,0.00,,,0.00,Wunderground v.1.15,2013-05-05 07:11:00,
2013-05-05 00:16:00,52.9,52.9,29.70,ESE,105,0.0,1.0,100,0.00,,,0.00,Wunderground v.1.15,2013-05-05 07:16:00,
2013-05-05 00:21:00,52.9,52.9,29.70,ESE,106,0.0,0.0,100,0.00,,,0.00,Wunderground v.1.15,2013-05-05 07:21:00,
2013-05-05 00:26:00,52.9,52.9,29.70,ESE,106,0.0,2.0,100,0.00,,,0.00,Wunderground v.1.15,2013-05-05 07:26:00,
2013-05-05 00:31:00,52.9,52.9,29.70,ESE,105,0.0,2.0,100,0.00,,,0.00,Wunderground v.1.15,2013-05-05 07:31:00,
2013-05-05 00:36:00,52.9,52.9,29.70,ESE,105,0.0,2.0,100,0.00,,,0.00,Wunderground v.1.15,2013-05-05 07:36:00,
2013-05-05 00:41:00,52.9,52.9,29.70,ESE,105,0.0,2.0,100,0.00,,,0.00,Wunderground v.1.15,2013-05-05 07:41:00,
2013-05-05 00:46:00,52.9,52.9,29.70,ESE,105,0.0,2.0,100,0.00,,,0.00,Wunderground v.1.15,2013-05-05 07:46:00,
2013-05-05 00:51:00,52.9,52.9,29.70,ESE,105,0.0,0.0,100,0.00,,,0.01,Wunderground v.1.15,2013-05-05 07:51:00,
2013-05-05 00:56:00,52.9,52.9,29.70,ESE,105,0.0,0.0,100,0.00,,,0.01,Wunderground v.1.15,2013-05-05 07:56:00,
2013-05-05 01:01:00,52.9,52.9,29.70,ESE,105,0.0,0.0,100,0.00,,,0.01,Wunderground v.1.15,2013-05-05 08:01:00,
2013-05-05 01:06:00,53.1,53.1,29.70,ESE,105,0.0,0.0,100,0.00,,,0.01,Wunderground v.1.15,2013-05-05 08:06:00,
2013-05-05 01:11:00,53.1,53.1,29.70,ESE,105,0.0,0.0,100,0.00,,,0.01,Wunderground v.1.15,2013-05-05 08:11:00,
2013-05-05 01:16:00,53.1,53.1,29.70,ESE,106,0.0,1.0,100,0.00,,,0.01,Wunderground v.1.15,2013-05-05 08:16:00,
2013-05-05 01:21:00,53.1,53.1,29.70,ESE,105,0.0,0.0,100,0.00,,,0.01,Wunderground v.1.15,2013-05-05 08:21:00,
2013-05-05 01:26:00,53.1,53.1,29.70,ESE,105,0.0,0.0,100,0.00,,,0.01,Wunderground v.1.15,2013-05-05 08:26:00,
2013-05-05 01:31:00,53.1,53.1,29.69,ESE,105,0.0,2.0,100,0.00,,,0.01,Wunderground v.1.15,2013-05-05 08:31:00,
2013-05-05 01:36:00,53.1,53.1,29.69,ESE,105,0.0,2.0,100,0.00,,,0.01,Wunderground v.1.15,2013-05-05 08:36:00,
2013-05-05 01:41:00,52.9,52.9,29.69,ESE,105,0.0,0.0,100,0.00,,,0.01,Wunderground v.1.15,2013-05-05 08:41:00,
2013-05-05 01:46:00,53.1,53.1,29.69,ESE,105,0.0,0.0,100,0.00,,,0.01,Wunderground v.1.15,2013-05-05 08:46:00,
2013-05-05 01:51:00,53.1,53.1,29.69,ESE,105,0.0,0.0,100,0.00,,,0.01,Wunderground v.1.15,2013-05-05 08:51:00,
2013-05-05 01:56:00,53.1,53.1,29.69,ESE,105,0.0,0.0,100,0.00,,,0.01,Wunderground v.1.15,2013-05-05 08:56:00,
2013-05-05 02:01:00,53.1,53.1,29.68,ESE,105,0.0,1.0,100,0.00,,,0.01,Wunderground v.1.15,2013-05-05 09:01:00,
2013-05-05 02:06:00,52.9,52.9,29.68,ESE,105,0.0,1.0,100,0.00,,,0.02,Wunderground v.1.15,2013-05-05 09:06:00,
2013-05-05 02:11:00,53.1,53.1,29.68,ESE,105,0.0,2.0,100,0.00,,,0.02,Wunderground v.1.15,2013-05-05 09:11:00,
2013-05-05 02:16:00,52.9,52.9,29.68,ESE,105,0.0,2.0,100,0.00,,,0.02,Wunderground v.1.15,2013-05-05 09:16:00,
2013-05-05 02:21:00,53.1,53.1,29.68,ESE,105,1.0,1.0,100,0.00,,,0.02,Wunderground v.1.15,2013-05-05 09:21:00,
2013-05-05 02:26:00,53.1,53.1,29.68,ESE,105,0.0,1.0,100,0.00,,,0.02,Wunderground v.1.15,2013-05-05 09:26:00,
2013-05-05 02:31:00,53.1,53.1,29.68,ESE,105,0.0,0.0,100,0.00,,,0.02,Wunderground v.1.15,2013-05-05 09:31:00,
2013-05-05 02:36:00,53.1,53.1,29.68,ESE,106,0.0,0.0,100,0.00,,,0.02,Wunderground v.1.15,2013-05-05 09:36:00,
2013-05-05 02:41:00,53.1,53.1,29.68,ESE,105,0.0,0.0,100,0.00,,,0.02,Wunderground v.1.15,2013-05-05 09:41:00,
2013-05-05 02:46:00,53.1,53.1,29.68,ESE,105,0.0,0.0,100,0.00,,,0.02,Wunderground v.1.15,2013-05-05 09:46:00,
2013-05-05 02:51:00,53.1,53.1,29.68,ESE,105,0.0,0.0,100,0.00,,,0.02,Wunderground v.1.15,2013-05-05 09:51:00,
2013-05-05 02:56:00,53.1,53.1,29.68,ESE,105,0.0,0.0,100,0.00,,,0.02,Wunderground v.1.15,2013-05-05 09:56:00,
2013-05-05 03:01:00,52.9,52.9,29.67,ESE,103,0.0,1.0,100,0.00,,,0.02,Wunderground v.1.15,2013-05-05 10:01:00,
2013-05-05 03:07:00,52.9,52.9,29.67,ESE,103,0.0,2.0,100,0.00,,,0.02,Wunderground v.1.15,2013-05-05 10:07:00,
2013-05-05 03:12:00,52.8,52.8,29.67,ESE,103,1.0,2.0,100,0.00,,,0.02,Wunderground v.1.15,2013-05-05 10:12:00,
2013-05-05 03:17:00,52.8,52.8,29.68,ESE,103,0.0,2.0,100,0.00,,,0.02,Wunderground v.1.15,2013-05-05 10:17:00,
2013-05-05 03:22:00,52.9,52.9,29.68,ESE,103,0.0,0.0,100,0.00,,,0.02,Wunderground v.1.15,2013-05-05 10:22:00,
2013-05-05 03:27:00,52.9,52.9,29.68,ESE,103,0.0,0.0,100,0.00,,,0.02,Wunderground v.1.15,2013-05-05 10:27:00,
2013-05-05 03:32:00,52.9,52.9,29.67,ESE,103,0.0,0.0,100,0.00,,,0.02,Wunderground v.1.15,2013-05-05 10:32:00,
2013-05-05 03:37:00,52.9,52.9,29.67,ESE,103,0.0,0.0,100,0.00,,,0.02,Wunderground v.1.15,2013-05-05 10:37:00,
2013-05-05 03:42:00,52.9,52.9,29.67,ESE,103,0.0,0.0,100,0.00,,,0.02,Wunderground v.1.15,2013-05-05 10:42:00,
2013-05-05 03:47:00,52.8,52.8,29.67,ESE,103,1.0,1.0,100,0.00,,,0.02,Wunderground v.1.15,2013-05-05 10:47:00,
2013-05-05 03:52:00,52.8,52.8,29.67,ESE,103,0.0,0.0,100,0.00,,,0.02,Wunderground v.1.15,2013-05-05 10:52:00,
2013-05-05 03:57:00,52.8,52.8,29.67,ESE,103,0.0,1.0,100,0.00,,,0.02,Wunderground v.1.15,2013-05-05 10:57:00,
2013-05-05 04:02:00,52.8,52.8,29.67,ESE,103,0.0,0.0,100,0.00,,,0.02,Wunderground v.1.15,2013-05-05 11:02:00,
2013-05-05 04:07:00,52.8,52.8,29.67,ESE,103,0.0,1.0,100,0.00,,,0.02,Wunderground v.1.15,2013-05-05 11:07:00,
2013-05-05 04:12:00,52.8,52.8,29.67,ESE,103,0.0,0.0,100,0.00,,,0.02,Wunderground v.1.15,2013-05-05 11:12:00,
2013-05-05 04:17:00,52.8,52.8,29.67,ESE,103,0.0,0.0,100,0.00,,,0.02,Wunderground v.1.15,2013-05-05 11:17:00,
2013-05-05 04:22:00,52.8,52.8,29.67,ESE,103,0.0,0.0,100,0.00,,,0.02,Wunderground v.1.15,2013-05-05 11:22:00,
2013-05-05 04:27:00,52.8,52.8,29.67,ESE,103,0.0,0.0,100,0.00,,,0.02,Wunderground v.1.15,2013-05-05 11:27:00,
2013-05-05 04:32:00,52.8,52.8,29.68,ESE,103,0.0,0.0,100,0.00,,,0.02,Wunderground v.1.15,2013-05-05 11:32:00,
2013-05-05 04:37:00,52.8,52.8,29.68,ESE,103,0.0,1.0,100,0.00,,,0.02,Wunderground v.1.15,2013-05-05 11:37:00,
2013-05-05 04:42:00,52.8,52.8,29.68,SSE,148,2.0,2.0,100,0.00,,,0.02,Wunderground v.1.15,2013-05-05 11:42:00,
2013-05-05 04:47:00,52.6,52.6,29.67,East,87,0.0,2.0,100,0.00,,,0.02,Wunderground v.1.15,2013-05-05 11:47:00,
2013-05-05 04:52:00,52.6,52.6,29.67,ENE,74,0.0,2.0,100,0.00,,,0.02,Wunderground v.1.15,2013-05-05 11:52:00,
2013-05-05 04:57:00,52.6,52.6,29.67,East,90,0.0,2.0,100,0.00,,,0.02,Wunderground v.1.15,2013-05-05 11:57:00,
2013-05-05 05:02:00,52.6,52.6,29.68,SE,125,1.0,4.0,100,0.00,,,0.02,Wunderground v.1.15,2013-05-05 12:02:00,
2013-05-05 05:07:00,52.6,52.6,29.68,SE,125,0.0,4.0,100,0.00,,,0.02,Wunderground v.1.15,2013-05-05 12:07:00,
2013-05-05 05:12:00,52.6,52.6,29.68,East,94,0.0,3.0,100,0.00,,,0.02,Wunderground v.1.15,2013-05-05 12:12:00,
2013-05-05 05:17:00,52.6,52.6,29.68,North,352,0.0,4.0,100,0.00,,,0.02,Wunderground v.1.15,2013-05-05 12:17:00,
2013-05-05 05:22:00,52.8,52.8,29.68,NE,46,0.0,2.0,100,0.00,,,0.02,Wunderground v.1.15,2013-05-05 12:22:00,
2013-05-05 05:27:00,52.6,52.6,29.68,ESE,109,0.0,2.0,100,0.00,,,0.02,Wunderground v.1.15,2013-05-05 12:27:00,
2013-05-05 05:32:00,52.6,52.6,29.68,ESE,117,0.0,3.0,100,0.00,,,0.02,Wunderground v.1.15,2013-05-05 12:32:00,
2013-05-05 05:37:00,52.8,52.8,29.68,ENE,71,0.0,3.0,100,0.00,,,0.02,Wunderground v.1.15,2013-05-05 12:37:00,
2013-05-05 05:42:00,52.8,52.8,29.68,SE,124,3.0,3.0,100,0.00,,,0.02,Wunderground v.1.15,2013-05-05 12:42:00,
2013-05-05 05:47:00,52.9,52.9,29.68,East,101,2.0,3.0,100,0.00,,,0.02,Wunderground v.1.15,2013-05-05 12:47:00,
2013-05-05 05:52:00,53.1,52.8,29.68,ESE,114,0.0,3.0,99,0.00,,,0.02,Wunderground v.1.15,2013-05-05 12:52:00,
2013-05-05 05:57:00,53.1,52.8,29.68,SE,133,0.0,3.0,99,0.00,,,0.02,Wunderground v.1.15,2013-05-05 12:57:00,
2013-05-05 06:02:00,53.2,52.9,29.69,East,94,0.0,3.0,99,0.00,,,0.02,Wunderground v.1.15,2013-05-05 13:02:00,
2013-05-05 06:07:00,53.2,52.9,29.69,SE,138,0.0,3.0,99,0.00,,,0.02,Wunderground v.1.15,2013-05-05 13:07:00,
2013-05-05 06:12:00,53.3,53.0,29.69,SE,124,1.0,2.0,99,0.00,,,0.02,Wunderground v.1.15,2013-05-05 13:12:00,
2013-05-05 06:17:00,53.3,53.0,29.69,ENE,66,2.0,3.0,99,0.00,,,0.02,Wunderground v.1.15,2013-05-05 13:17:00,
2013-05-05 06:22:00,53.3,53.0,29.69,East,79,0.0,3.0,99,0.00,,,0.02,Wunderground v.1.15,2013-05-05 13:22:00,
2013-05-05 06:27:00,53.5,53.2,29.69,ESE,117,0.0,3.0,99,0.00,,,0.02,Wunderground v.1.15,2013-05-05 13:27:00,
2013-05-05 06:32:00,53.5,52.9,29.70,ESE,117,0.0,1.0,98,0.00,,,0.02,Wunderground v.1.15,2013-05-05 13:32:00,
2013-05-05 06:37:00,53.6,53.0,29.70,ESE,117,1.0,3.0,98,0.00,,,0.02,Wunderground v.1.15,2013-05-05 13:37:00,
2013-05-05 06:42:00,53.6,53.0,29.70,ESE,106,0.0,1.0,98,0.00,,,0.02,Wunderground v.1.15,2013-05-05 13:42:00,
2013-05-05 06:47:00,53.8,53.2,29.70,NE,37,0.0,3.0,98,0.00,,,0.02,Wunderground v.1.15,2013-05-05 13:47:00,
2013-05-05 06:52:00,53.8,53.2,29.70,ENE,72,0.0,0.0,98,0.00,,,0.02,Wunderground v.1.15,2013-05-05 13:52:00,
2013-05-05 06:57:00,53.8,53.2,29.70,East,84,2.0,3.0,98,0.00,,,0.02,Wunderground v.1.15,2013-05-05 13:57:00,
2013-05-05 07:02:00,53.8,53.0,29.70,ENE,68,0.0,3.0,97,0.00,,,0.02,Wunderground v.1.15,2013-05-05 14:02:00,
2013-05-05 07:07:00,53.9,53.1,29.70,East,89,1.0,4.0,97,0.00,,,0.02,Wunderground v.1.15,2013-05-05 14:07:00,
2013-05-05 07:12:00,53.9,53.1,29.70,ESE,103,0.0,4.0,97,0.00,,,0.02,Wunderground v.1.15,2013-05-05 14:12:00,
2013-05-05 07:17:00,53.9,53.1,29.70,ESE,103,0.0,4.0,97,0.00,,,0.02,Wunderground v.1.15,2013-05-05 14:17:00,
2013-05-05 07:22:00,54.1,53.3,29.70,ESE,115,0.0,1.0,97,0.00,,,0.02,Wunderground v.1.15,2013-05-05 14:22:00,
2013-05-05 07:27:00,54.1,53.3,29.70,ESE,106,0.0,2.0,97,0.00,,,0.02,Wunderground v.1.15,2013-05-05 14:27:00,
2013-05-05 07:32:00,54.1,53.0,29.71,ENE,77,0.0,2.0,96,0.00,,,0.02,Wunderground v.1.15,2013-05-05 14:32:00,
2013-05-05 07:37:00,54.1,52.4,29.71,East,79,0.0,4.0,94,0.00,,,0.02,Wunderground v.1.15,2013-05-05 14:37:00,
2013-05-05 07:42:00,54.2,52.5,29.71,East,89,3.0,3.0,94,0.00,,,0.02,Wunderground v.1.15,2013-05-05 14:42:00,
2013-05-05 07:47:00,54.4,52.4,29.71,ESE,107,0.0,4.0,93,0.00,,,0.02,Wunderground v.1.15,2013-05-05 14:47:00,
2013-05-05 07:52:00,54.5,52.5,29.71,East,80,4.0,4.0,93,0.00,,,0.02,Wunderground v.1.15,2013-05-05 14:52:00,
2013-05-05 07:57:00,54.7,52.4,29.71,ESE,108,2.0,5.0,92,0.00,,,0.02,Wunderground v.1.15,2013-05-05 14:57:00,
2013-05-05 08:02:00,54.8,52.5,29.72,ESE,117,0.0,2.0,92,0.00,,,0.02,Wunderground v.1.15,2013-05-05 15:02:00,
2013-05-05 08:07:00,54.8,52.5,29.72,ENE,63,1.0,2.0,92,0.00,,,0.02,Wunderground v.1.15,2013-05-05 15:07:00,
2013-05-05 08:12:00,55.0,52.7,29.72,East,91,0.0,3.0,92,0.00,,,0.02,Wunderground v.1.15,2013-05-05 15:12:00,
2013-05-05 08:17:00,55.0,52.7,29.72,East,100,0.0,4.0,92,0.00,,,0.02,Wunderground v.1.15,2013-05-05 15:17:00,
2013-05-05 08:22:00,55.1,52.8,29.72,SE,124,1.0,6.0,92,0.00,,,0.02,Wunderground v.1.15,2013-05-05 15:22:00,
2013-05-05 08:27:00,55.1,52.8,29.72,ESE,116,0.0,6.0,92,0.00,,,0.02,Wunderground v.1.15,2013-05-05 15:27:00,
2013-05-05 08:32:00,55.3,53.3,29.72,ESE,113,1.0,3.0,93,0.00,,,0.02,Wunderground v.1.15,2013-05-05 15:32:00,
2013-05-05 08:37:00,55.4,53.1,29.72,ESE,103,0.0,3.0,92,0.00,,,0.02,Wunderground v.1.15,2013-05-05 15:37:00,
2013-05-05 08:42:00,55.6,53.3,29.72,SW,223,2.0,3.0,92,0.00,,,0.02,Wunderground v.1.15,2013-05-05 15:42:00,
2013-05-05 08:47:00,55.7,53.4,29.73,SE,134,2.0,3.0,92,0.00,,,0.02,Wunderground v.1.15,2013-05-05 15:47:00,
2013-05-05 08:52:00,55.9,53.6,29.73,East,95,2.0,3.0,92,0.00,,,0.02,Wunderground v.1.15,2013-05-05 15:52:00,
2013-05-05 08:57:00,55.9,53.3,29.73,ESE,123,0.0,6.0,91,0.00,,,0.02,Wunderground v.1.15,2013-05-05 15:57:00,
2013-05-05 09:02:00,56.0,53.4,29.73,ESE,115,2.0,4.0,91,0.00,,,0.02,Wunderground v.1.15,2013-05-05 16:02:00,
2013-05-05 09:07:00,56.0,53.4,29.73,ESE,110,4.0,6.0,91,0.00,,,0.02,Wunderground v.1.15,2013-05-05 16:07:00,
2013-05-05 09:12:00,56.0,53.4,29.73,East,101,3.0,4.0,91,0.00,,,0.02,Wunderground v.1.15,2013-05-05 16:12:00,
2013-05-05 09:17:00,56.2,53.6,29.73,NE,48,0.0,4.0,91,0.00,,,0.02,Wunderground v.1.15,2013-05-05 16:17:00,
2013-05-05 09:22:00,56.3,53.7,29.73,East,94,3.0,6.0,91,0.00,,,0.02,Wunderground v.1.15,2013-05-05 16:22:00,
2013-05-05 09:27:00,56.5,53.9,29.73,East,91,1.0,6.0,91,0.00,,,0.02,Wunderground v.1.15,2013-05-05 16:27:00,
2013-05-05 09:32:00,56.7,54.1,29.73,East,91,1.0,3.0,91,0.00,,,0.02,Wunderground v.1.15,2013-05-05 16:32:00,
2013-05-05 09:37:00,56.9,54.3,29.73,East,98,0.0,6.0,91,0.00,,,0.02,Wunderground v.1.15,2013-05-05 16:37:00,
2013-05-05 09:42:00,57.0,54.4,29.73,ESE,114,1.0,4.0,91,0.00,,,0.02,Wunderground v.1.15,2013-05-05 16:42:00,
2013-05-05 09:47:00,57.0,54.1,29.73,ESE,117,4.0,6.0,90,0.00,,,0.02,Wunderground v.1.15,2013-05-05 16:47:00,
2013-05-05 09:52:00,56.9,54.0,29.73,East,91,3.0,7.0,90,0.00,,,0.02,Wunderground v.1.15,2013-05-05 16:52:00,
2013-05-05 09:57:00,57.0,54.1,29.73,East,94,1.0,7.0,90,0.00,,,0.02,Wunderground v.1.15,2013-05-05 16:57:00,
2013-05-05 10:02:00,57.2,54.3,29.73,ESE,106,2.0,5.0,90,0.00,,,0.02,Wunderground v.1.15,2013-05-05 17:02:00,
2013-05-05 10:07:00,57.5,54.3,29.73,NE,41,3.0,5.0,89,0.00,,,0.02,Wunderground v.1.15,2013-05-05 17:07:00,
2013-05-05 10:12:00,57.6,54.4,29.73,East,80,3.0,5.0,89,0.00,,,0.02,Wunderground v.1.15,2013-05-05 17:12:00,
2013-05-05 10:17:00,57.8,54.6,29.73,ESE,115,2.0,5.0,89,0.00,,,0.02,Wunderground v.1.15,2013-05-05 17:17:00,
2013-05-05 10:22:00,58.0,54.8,29.73,East,86,2.0,4.0,89,0.00,,,0.02,Wunderground v.1.15,2013-05-05 17:22:00,
2013-05-05 10:27:00,57.8,54.6,29.73,East,101,4.0,6.0,89,0.00,,,0.02,Wunderground v.1.15,2013-05-05 17:27:00,
2013-05-05 10:32:00,57.6,54.4,29.73,SE,128,0.0,5.0,89,0.00,,,0.02,Wunderground v.1.15,2013-05-05 17:32:00,
2013-05-05 10:37:00,57.5,54.3,29.73,ENE,60,2.0,6.0,89,0.00,,,0.02,Wunderground v.1.15,2013-05-05 17:37:00,
2013-05-05 10:42:00,57.5,54.6,29.73,East,84,0.0,3.0,90,0.00,,,0.02,Wunderground v.1.15,2013-05-05 17:42:00,
2013-05-05 10:47:00,57.6,54.7,29.73,NNE,21,2.0,7.0,90,0.00,,,0.02,Wunderground v.1.15,2013-05-05 17:47:00,
2013-05-05 10:52:00,57.6,54.7,29.73,ESE,103,3.0,5.0,90,0.00,,,0.02,Wunderground v.1.15,2013-05-05 17:52:00,
2013-05-05 10:57:00,57.8,54.6,29.73,NNE,18,5.0,6.0,89,0.00,,,0.02,Wunderground v.1.15,2013-05-05 17:57:00,
2013-05-05 11:02:00,58.1,54.9,29.73,SE,136,0.0,4.0,89,0.00,,,0.02,Wunderground v.1.15,2013-05-05 18:02:00,
2013-05-05 11:07:00,58.1,54.9,29.73,ESE,107,3.0,4.0,89,0.00,,,0.02,Wunderground v.1.15,2013-05-05 18:07:00,
2013-05-05 11:12:00,58.1,54.6,29.73,NE,54,1.0,6.0,88,0.00,,,0.02,Wunderground v.1.15,2013-05-05 18:12:00,
2013-05-05 11:17:00,58.3,54.8,29.74,East,85,4.0,7.0,88,0.00,,,0.02,Wunderground v.1.15,2013-05-05 18:17:00,
2013-05-05 11:22:00,58.1,54.9,29.74,ESE,105,0.0,6.0,89,0.00,,,0.02,Wunderground v.1.15,2013-05-05 18:22:00,
2013-05-05 11:27:00,58.0,54.8,29.74,East,84,5.0,7.0,89,0.00,,,0.02,Wunderground v.1.15,2013-05-05 18:27:00,
2013-05-05 11:32:00,57.8,54.6,29.74,ESE,103,2.0,7.0,89,0.00,,,0.02,Wunderground v.1.15,2013-05-05 18:32:00,
2013-05-05 11:37:00,57.8,54.6,29.74,SE,136,2.0,7.0,89,0.00,,,0.02,Wunderground v.1.15,2013-05-05 18:37:00,
2013-05-05 11:42:00,57.6,54.4,29.74,East,87,6.0,7.0,89,0.00,,,0.02,Wunderground v.1.15,2013-05-05 18:42:00,
2013-05-05 11:47:00,57.2,54.3,29.74,ESE,113,1.0,9.0,90,0.00,,,0.02,Wunderground v.1.15,2013-05-05 18:47:00,
2013-05-05 11:52:00,57.2,54.6,29.74,SSE,158,3.0,7.0,91,0.00,,,0.02,Wunderground v.1.15,2013-05-05 18:52:00,
2013-05-05 11:57:00,57.3,54.7,29.74,East,96,4.0,9.0,91,0.00,,,0.02,Wunderground v.1.15,2013-05-05 18:57:00,
2013-05-05 12:02:00,57.8,55.2,29.74,SE,127,3.0,10.0,91,0.00,,,0.02,Wunderground v.1.15,2013-05-05 19:02:00,
2013-05-05 12:07:00,58.3,55.1,29.74,SE,133,3.0,10.0,89,0.00,,,0.02,Wunderground v.1.15,2013-05-05 19:07:00,
2013-05-05 12:12:00,58.3,55.1,29.74,ENE,66,4.0,7.0,89,0.00,,,0.02,Wunderground v.1.15,2013-05-05 19:12:00,
2013-05-05 12:17:00,58.4,55.2,29.75,NNE,20,2.0,7.0,89,0.00,,,0.02,Wunderground v.1.15,2013-05-05 19:17:00,
2013-05-05 12:22:00,58.1,54.6,29.75,ENE,75,0.0,5.0,88,0.00,,,0.02,Wunderground v.1.15,2013-05-05 19:22:00,
2013-05-05 12:27:00,58.0,54.8,29.75,East,101,2.0,6.0,89,0.00,,,0.02,Wunderground v.1.15,2013-05-05 19:27:00,
2013-05-05 12:32:00,57.8,54.6,29.74,ESE,110,2.0,8.0,89,0.00,,,0.02,Wunderground v.1.15,2013-05-05 19:32:00,
2013-05-05 12:37:00,57.6,54.7,29.74,SW,217,2.0,8.0,90,0.00,,,0.02,Wunderground v.1.15,2013-05-05 19:37:00,
2013-05-05 12:42:00,57.5,54.6,29.74,SE,124,2.0,4.0,90,0.00,,,0.02,Wunderground v.1.15,2013-05-05 19:42:00,
2013-05-05 12:47:00,57.2,54.3,29.74,NNE,13,0.0,7.0,90,0.00,,,0.02,Wunderground v.1.15,2013-05-05 19:47:00,
2013-05-05 12:52:00,56.9,54.3,29.74,SE,126,0.0,6.0,91,0.00,,,0.02,Wunderground v.1.15,2013-05-05 19:52:00,
2013-05-05 12:57:00,56.9,54.3,29.74,East,89,1.0,6.0,91,0.00,,,0.02,Wunderground v.1.15,2013-05-05 19:57:00,
2013-05-05 13:02:00,56.9,54.3,29.73,ESE,117,0.0,3.0,91,0.00,,,0.02,Wunderground v.1.15,2013-05-05 20:02:00,
2013-05-05 13:07:00,56.9,54.3,29.73,ESE,113,5.0,9.0,91,0.00,,,0.02,Wunderground v.1.15,2013-05-05 20:07:00,
2013-05-05 13:12:00,57.0,54.4,29.73,East,99,0.0,6.0,91,0.00,,,0.02,Wunderground v.1.15,2013-05-05 20:12:00,
2013-05-05 13:17:00,56.9,54.6,29.73,ESE,112,3.0,10.0,92,0.00,,,0.02,Wunderground v.1.15,2013-05-05 20:17:00,
2013-05-05 13:22:00,56.6,54.6,29.73,SSE,155,3.0,11.0,93,0.00,,,0.02,Wunderground v.1.15,2013-05-05 20:22:00,
2013-05-05 13:27:00,56.6,54.6,29.73,NNW,327,3.0,11.0,93,0.00,,,0.02,Wunderground v.1.15,2013-05-05 20:27:00,
2013-05-05 13:32:00,56.5,54.8,29.73,ENE,72,1.0,7.0,94,0.00,,,0.02,Wunderground v.1.15,2013-05-05 20:32:00,
2013-05-05 13:37:00,56.5,54.8,29.73,East,94,9.0,10.0,94,0.00,,,0.02,Wunderground v.1.15,2013-05-05 20:37:00,
2013-05-05 13:42:00,56.5,54.8,29.73,NE,54,2.0,10.0,94,0.00,,,0.02,Wunderground v.1.15,2013-05-05 20:42:00,
2013-05-05 13:47:00,56.7,55.0,29.73,ESE,108,8.0,12.0,94,0.00,,,0.02,Wunderground v.1.15,2013-05-05 20:47:00,
2013-05-05 13:52:00,57.0,55.0,29.73,ESE,110,7.0,9.0,93,0.00,,,0.02,Wunderground v.1.15,2013-05-05 20:52:00,
2013-05-05 13:57:00,57.2,55.2,29.73,NE,49,2.0,13.0,93,0.00,,,0.02,Wunderground v.1.15,2013-05-05 20:57:00,
2013-05-05 14:02:00,57.2,54.9,29.73,ENE,75,6.0,9.0,92,0.00,,,0.02,Wunderground v.1.15,2013-05-05 21:02:00,
2013-05-05 14:07:00,57.2,54.9,29.73,ENE,65,6.0,9.0,92,0.00,,,0.02,Wunderground v.1.15,2013-05-05 21:07:00,
2013-05-05 14:12:00,57.3,54.7,29.73,ENE,72,2.0,9.0,91,0.00,,,0.02,Wunderground v.1.15,2013-05-05 21:12:00,
2013-05-05 14:17:00,57.6,55.0,29.74,NW,306,2.0,9.0,91,0.00,,,0.02,Wunderground v.1.15,2013-05-05 21:17:00,
2013-05-05 14:22:00,58.0,55.4,29.74,ESE,117,5.0,7.0,91,0.00,,,0.02,Wunderground v.1.15,2013-05-05 21:22:00,
2013-05-05 14:27:00,58.1,55.2,29.74,East,87,3.0,9.0,90,0.00,,,0.02,Wunderground v.1.15,2013-05-05 21:27:00,
2013-05-05 14:32:00,58.1,55.2,29.74,NE,39,2.0,10.0,90,0.00,,,0.02,Wunderground v.1.15,2013-05-05 21:32:00,
2013-05-05 14:37:00,58.1,54.9,29.74,ESE,102,4.0,10.0,89,0.00,,,0.02,Wunderground v.1.15,2013-05-05 21:37:00,
2013-05-05 14:42:00,58.3,55.1,29.74,NW,321,2.0,7.0,89,0.00,,,0.02,Wunderground v.1.15,2013-05-05 21:42:00,
2013-05-05 14:47:00,58.1,54.9,29.73,East,96,1.0,7.0,89,0.00,,,0.02,Wunderground v.1.15,2013-05-05 21:47:00,
2013-05-05 14:52:00,58.0,55.1,29.73,East,79,0.0,9.0,90,0.00,,,0.02,Wunderground v.1.15,2013-05-05 21:52:00,
2013-05-05 14:57:00,57.8,54.9,29.73,NE,51,6.0,10.0,90,0.00,,,0.02,Wunderground v.1.15,2013-05-05 21:57:00,
2013-05-05 15:02:00,57.6,54.7,29.73,NNW,346,4.0,10.0,90,0.00,,,0.02,Wunderground v.1.15,2013-05-05 22:02:00,
2013-05-05 15:07:00,57.6,54.7,29.73,East,79,3.0,10.0,90,0.00,,,0.02,Wunderground v.1.15,2013-05-05 22:07:00,
2013-05-05 15:12:00,57.8,54.9,29.73,North,8,4.0,7.0,90,0.00,,,0.02,Wunderground v.1.15,2013-05-05 22:12:00,
2013-05-05 15:17:00,58.0,54.8,29.73,East,81,3.0,8.0,89,0.00,,,0.02,Wunderground v.1.15,2013-05-05 22:17:00,
2013-05-05 15:22:00,57.6,54.4,29.73,East,98,1.0,6.0,89,0.00,,,0.02,Wunderground v.1.15,2013-05-05 22:22:00,
2013-05-05 15:27:00,57.5,54.6,29.73,East,94,1.0,9.0,90,0.00,,,0.02,Wunderground v.1.15,2013-05-05 22:27:00,
2013-05-05 15:32:00,57.5,54.9,29.74,ESE,113,4.0,6.0,91,0.00,,,0.02,Wunderground v.1.15,2013-05-05 22:32:00,
2013-05-05 15:37:00,57.3,55.0,29.74,NE,43,4.0,7.0,92,0.00,,,0.02,Wunderground v.1.15,2013-05-05 22:37:00,
2013-05-05 15:42:00,57.2,54.9,29.74,ESE,106,5.0,6.0,92,0.00,,,0.02,Wunderground v.1.15,2013-05-05 22:42:00,
2013-05-05 15:47:00,57.0,54.7,29.73,SE,129,5.0,7.0,92,0.00,,,0.02,Wunderground v.1.15,2013-05-05 22:47:00,
2013-05-05 15:52:00,56.9,54.9,29.73,ENE,58,0.0,6.0,93,0.00,,,0.02,Wunderground v.1.15,2013-05-05 22:52:00,
2013-05-05 15:57:00,56.9,54.9,29.73,ENE,72,2.0,7.0,93,0.00,,,0.02,Wunderground v.1.15,2013-05-05 22:57:00,
2013-05-05 16:02:00,56.7,54.7,29.73,NNE,33,0.0,3.0,93,0.00,,,0.02,Wunderground v.1.15,2013-05-05 23:02:00,
2013-05-05 16:07:00,56.7,55.0,29.73,ESE,116,5.0,5.0,94,0.00,,,0.02,Wunderground v.1.15,2013-05-05 23:07:00,
2013-05-05 16:12:00,56.6,54.9,29.73,NE,37,1.0,7.0,94,0.00,,,0.02,Wunderground v.1.15,2013-05-05 23:12:00,
2013-05-05 16:17:00,56.6,54.9,29.73,NE,51,3.0,7.0,94,0.00,,,0.02,Wunderground v.1.15,2013-05-05 23:17:00,
2013-05-05 16:22:00,56.5,55.1,29.73,ENE,68,0.0,6.0,95,0.00,,,0.02,Wunderground v.1.15,2013-05-05 23:22:00,
2013-05-05 16:27:00,56.3,54.9,29.73,SE,129,4.0,10.0,95,0.00,,,0.02,Wunderground v.1.15,2013-05-05 23:27:00,
2013-05-05 16:32:00,56.3,54.9,29.74,East,82,4.0,5.0,95,0.00,,,0.02,Wunderground v.1.15,2013-05-05 23:32:00,
2013-05-05 16:37:00,56.3,54.9,29.74,ESE,111,3.0,5.0,95,0.00,,,0.02,Wunderground v.1.15,2013-05-05 23:37:00,
2013-05-05 16:42:00,56.5,55.1,29.74,ESE,113,4.0,5.0,95,0.00,,,0.02,Wunderground v.1.15,2013-05-05 23:42:00,
2013-05-05 16:47:00,56.5,54.8,29.74,ESE,102,4.0,5.0,94,0.00,,,0.02,Wunderground v.1.15,2013-05-05 23:47:00,
2013-05-05 16:52:00,56.6,54.6,29.74,ESE,102,3.0,5.0,93,0.00,,,0.02,Wunderground v.1.15,2013-05-05 23:52:00,
2013-05-05 16:57:00,56.7,54.7,29.74,South,173,0.0,5.0,93,0.00,,,0.02,Wunderground v.1.15,2013-05-05 23:57:00,
2013-05-05 17:02:00,56.9,54.9,29.74,SW,231,2.0,7.0,93,0.00,,,0.02,Wunderground v.1.15,2013-05-06 00:02:00,
2013-05-05 17:07:00,56.7,54.7,29.74,SE,137,4.0,7.0,93,0.00,,,0.02,Wunderground v.1.15,2013-05-06 00:07:00,
2013-05-05 17:12:00,56.7,55.0,29.74,ESE,109,0.0,3.0,94,0.00,,,0.02,Wunderground v.1.15,2013-05-06 00:12:00,
2013-05-05 17:17:00,56.6,54.9,29.75,East,98,0.0,6.0,94,0.00,,,0.02,Wunderground v.1.15,2013-05-06 00:17:00,
2013-05-05 17:22:00,56.6,54.9,29.75,East,95,0.0,9.0,94,0.00,,,0.02,Wunderground v.1.15,2013-05-06 00:22:00,
2013-05-05 17:27:00,56.6,54.9,29.75,ESE,110,0.0,9.0,94,0.00,,,0.02,Wunderground v.1.15,2013-05-06 00:27:00,
2013-05-05 17:32:00,56.6,54.9,29.75,ESE,118,2.0,4.0,94,0.00,,,0.02,Wunderground v.1.15,2013-05-06 00:32:00,
2013-05-05 17:37:00,56.6,54.9,29.75,ESE,122,2.0,5.0,94,0.00,,,0.02,Wunderground v.1.15,2013-05-06 00:37:00,
2013-05-05 17:42:00,56.7,54.7,29.75,East,84,1.0,7.0,93,0.00,,,0.02,Wunderground v.1.15,2013-05-06 00:42:00,
2013-05-05 17:47:00,56.9,54.6,29.75,NE,47,0.0,8.0,92,0.00,,,0.02,Wunderground v.1.15,2013-05-06 00:47:00,
2013-05-05 17:52:00,57.2,54.9,29.75,ENE,65,5.0,7.0,92,0.00,,,0.02,Wunderground v.1.15,2013-05-06 00:52:00,
2013-05-05 17:57:00,57.3,54.7,29.75,East,95,0.0,9.0,91,0.00,,,0.02,Wunderground v.1.15,2013-05-06 00:57:00,
2013-05-05 18:02:00,57.5,54.6,29.74,SE,130,4.0,9.0,90,0.00,,,0.02,Wunderground v.1.15,2013-05-06 01:02:00,
2013-05-05 18:07:00,57.5,54.6,29.74,ESE,112,2.0,9.0,90,0.00,,,0.02,Wunderground v.1.15,2013-05-06 01:07:00,
2013-05-05 18:12:00,57.5,54.6,29.74,WSW,254,1.0,6.0,90,0.00,,,0.02,Wunderground v.1.15,2013-05-06 01:12:00,
2013-05-05 18:17:00,57.6,54.7,29.74,ENE,77,3.0,9.0,90,0.00,,,0.02,Wunderground v.1.15,2013-05-06 01:17:00,
2013-05-05 18:22:00,57.6,54.7,29.74,SW,219,7.0,7.0,90,0.00,,,0.02,Wunderground v.1.15,2013-05-06 01:22:00,
2013-05-05 18:27:00,57.5,54.3,29.74,SSE,167,2.0,8.0,89,0.00,,,0.02,Wunderground v.1.15,2013-05-06 01:27:00,
2013-05-05 18:32:00,57.5,54.3,29.74,ESE,114,3.0,7.0,89,0.00,,,0.02,Wunderground v.1.15,2013-05-06 01:32:00,
2013-05-05 18:37:00,57.5,54.3,29.74,ESE,112,3.0,9.0,89,0.00,,,0.02,Wunderground v.1.15,2013-05-06 01:37:00,
2013-05-05 18:42:00,57.5,54.3,29.74,East,86,3.0,6.0,89,0.00,,,0.02,Wunderground v.1.15,2013-05-06 01:42:00,
2013-05-05 18:47:00,57.3,54.4,29.74,ENE,63,2.0,7.0,90,0.00,,,0.02,Wunderground v.1.15,2013-05-06 01:47:00,
2013-05-05 18:52:00,57.3,54.4,29.74,ESE,102,4.0,6.0,90,0.00,,,0.02,Wunderground v.1.15,2013-05-06 01:52:00,
2013-05-05 18:57:00,57.2,54.3,29.74,North,357,2.0,6.0,90,0.00,,,0.02,Wunderground v.1.15,2013-05-06 01:57:00,
2013-05-05 19:02:00,57.2,54.6,29.74,East,94,0.0,5.0,91,0.00,,,0.02,Wunderground v.1.15,2013-05-06 02:02:00,
2013-05-05 19:07:00,57.0,54.4,29.74,ESE,115,0.0,9.0,91,0.00,,,0.02,Wunderground v.1.15,2013-05-06 02:07:00,
2013-05-05 19:12:00,57.0,54.4,29.74,NNE,13,1.0,5.0,91,0.00,,,0.02,Wunderground v.1.15,2013-05-06 02:12:00,
2013-05-05 19:17:00,57.0,54.4,29.75,SSE,153,2.0,7.0,91,0.00,,,0.02,Wunderground v.1.15,2013-05-06 02:17:00,
2013-05-05 19:22:00,56.9,54.6,29.75,NW,307,2.0,6.0,92,0.00,,,0.02,Wunderground v.1.15,2013-05-06 02:22:00,
2013-05-05 19:27:00,56.9,54.6,29.75,North,6,2.0,6.0,92,0.00,,,0.02,Wunderground v.1.15,2013-05-06 02:27:00,
2013-05-05 19:32:00,56.7,54.7,29.75,North,353,1.0,3.0,93,0.00,,,0.02,Wunderground v.1.15,2013-05-06 02:32:00,
2013-05-05 19:37:00,56.7,54.7,29.75,East,98,1.0,4.0,93,0.00,,,0.02,Wunderground v.1.15,2013-05-06 02:37:00,
2013-05-05 19:42:00,56.6,54.6,29.75,East,89,0.0,3.0,93,0.00,,,0.02,Wunderground v.1.15,2013-05-06 02:42:00,
2013-05-05 19:47:00,56.5,54.5,29.75,East,96,3.0,5.0,93,0.00,,,0.02,Wunderground v.1.15,2013-05-06 02:47:00,
2013-05-05 19:52:00,56.5,54.5,29.75,East,91,0.0,4.0,93,0.00,,,0.02,Wunderground v.1.15,2013-05-06 02:52:00,
2013-05-05 19:57:00,56.3,54.3,29.75,ENE,75,0.0,4.0,93,0.00,,,0.02,Wunderground v.1.15,2013-05-06 02:57:00,
2013-05-05 20:02:00,56.3,54.3,29.75,ESE,104,2.0,2.0,93,0.00,,,0.02,Wunderground v.1.15,2013-05-06 03:02:00,
2013-05-05 20:07:00,56.3,54.3,29.75,East,84,0.0,4.0,93,0.00,,,0.02,Wunderground v.1.15,2013-05-06 03:07:00,
2013-05-05 20:12:00,56.3,54.0,29.75,ENE,63,3.0,4.0,92,0.00,,,0.02,Wunderground v.1.15,2013-05-06 03:12:00,
2013-05-05 20:17:00,56.3,54.0,29.75,East,80,0.0,4.0,92,0.00,,,0.02,Wunderground v.1.15,2013-05-06 03:17:00,
2013-05-05 20:22:00,56.3,54.0,29.75,NNE,15,0.0,4.0,92,0.00,,,0.02,Wunderground v.1.15,2013-05-06 03:22:00,
2013-05-05 20:27:00,56.3,54.0,29.75,ENE,77,0.0,5.0,92,0.00,,,0.02,Wunderground v.1.15,2013-05-06 03:27:00,
2013-05-05 20:32:00,56.5,54.2,29.75,East,101,7.0,7.0,92,0.00,,,0.02,Wunderground v.1.15,2013-05-06 03:32:00,
2013-05-05 20:38:00,56.5,54.2,29.75,ENE,65,1.0,7.0,92,0.00,,,0.02,Wunderground v.1.15,2013-05-06 03:38:00,
2013-05-05 20:43:00,56.5,54.2,29.75,ESE,115,4.0,5.0,92,0.00,,,0.02,Wunderground v.1.15,2013-05-06 03:43:00,
2013-05-05 20:48:00,56.5,54.2,29.76,East,84,0.0,6.0,92,0.00,,,0.02,Wunderground v.1.15,2013-05-06 03:48:00,
2013-05-05 20:53:00,56.3,54.0,29.76,SSW,209,2.0,4.0,92,0.00,,,0.02,Wunderground v.1.15,2013-05-06 03:53:00,
2013-05-05 20:58:00,56.3,54.0,29.76,ESE,108,1.0,5.0,92,0.00,,,0.02,Wunderground v.1.15,2013-05-06 03:58:00,
2013-05-05 21:01:00,56.3,54.0,29.76,ESE,113,2.0,3.0,92,0.00,,,0.02,Wunderground v.1.15,2013-05-06 04:01:00,
2013-05-05 21:06:00,56.5,54.2,29.76,ESE,116,0.0,4.0,92,0.00,,,0.02,Wunderground v.1.15,2013-05-06 04:06:00,
2013-05-05 21:11:00,56.5,54.2,29.76,East,98,0.0,3.0,92,0.00,,,0.02,Wunderground v.1.15,2013-05-06 04:11:00,
2013-05-05 21:16:00,56.5,54.2,29.76,SE,139,0.0,5.0,92,0.00,,,0.02,Wunderground v.1.15,2013-05-06 04:16:00,
2013-05-05 21:21:00,56.5,54.2,29.76,SE,129,2.0,3.0,92,0.00,,,0.02,Wunderground v.1.15,2013-05-06 04:21:00,
2013-05-05 21:26:00,56.5,54.2,29.76,East,91,1.0,5.0,92,0.00,,,0.02,Wunderground v.1.15,2013-05-06 04:26:00,
2013-05-05 21:31:00,56.5,54.2,29.76,SE,138,0.0,3.0,92,0.00,,,0.02,Wunderground v.1.15,2013-05-06 04:31:00,
2013-05-05 21:36:00,56.5,54.2,29.76,ESE,107,1.0,5.0,92,0.00,,,0.02,Wunderground v.1.15,2013-05-06 04:36:00,
2013-05-05 21:41:00,56.5,54.2,29.76,SSE,164,1.0,6.0,92,0.00,,,0.02,Wunderground v.1.15,2013-05-06 04:41:00,
2013-05-05 21:46:00,56.5,54.2,29.77,ESE,108,0.0,6.0,92,0.00,,,0.02,Wunderground v.1.15,2013-05-06 04:46:00,
2013-05-05 21:51:00,56.6,54.0,29.77,NE,39,2.0,3.0,91,0.00,,,0.02,Wunderground v.1.15,2013-05-06 04:51:00,
2013-05-05 21:56:00,56.7,53.8,29.77,SE,129,2.0,7.0,90,0.00,,,0.02,Wunderground v.1.15,2013-05-06 04:56:00,
2013-05-05 22:01:00,56.7,53.8,29.77,SE,127,2.0,4.0,90,0.00,,,0.02,Wunderground v.1.15,2013-05-06 05:01:00,
2013-05-05 22:06:00,56.9,54.0,29.77,ESE,105,3.0,4.0,90,0.00,,,0.02,Wunderground v.1.15,2013-05-06 05:06:00,
2013-05-05 22:11:00,56.9,54.0,29.77,ESE,103,0.0,3.0,90,0.00,,,0.02,Wunderground v.1.15,2013-05-06 05:11:00,
2013-05-05 22:16:00,56.9,54.0,29.78,East,84,0.0,6.0,90,0.00,,,0.02,Wunderground v.1.15,2013-05-06 05:16:00,
2013-05-05 22:21:00,56.9,54.0,29.78,ESE,110,2.0,5.0,90,0.00,,,0.02,Wunderground v.1.15,2013-05-06 05:21:00,
2013-05-05 22:26:00,56.9,54.0,29.78,West,273,0.0,5.0,90,0.00,,,0.02,Wunderground v.1.15,2013-05-06 05:26:00,
2013-05-05 22:31:00,56.9,53.7,29.78,ESE,120,2.0,4.0,89,0.00,,,0.02,Wunderground v.1.15,2013-05-06 05:31:00,
2013-05-05 22:36:00,56.9,53.7,29.78,East,98,2.0,4.0,89,0.00,,,0.02,Wunderground v.1.15,2013-05-06 05:36:00,
2013-05-05 22:41:00,57.0,53.8,29.78,SSE,160,1.0,4.0,89,0.00,,,0.02,Wunderground v.1.15,2013-05-06 05:41:00,
2013-05-05 22:46:00,57.0,53.8,29.78,South,179,1.0,4.0,89,0.00,,,0.02,Wunderground v.1.15,2013-05-06 05:46:00,
2013-05-05 22:51:00,57.2,53.7,29.78,ESE,115,0.0,2.0,88,0.00,,,0.02,Wunderground v.1.15,2013-05-06 05:51:00,
2013-05-05 22:56:00,57.2,53.7,29.78,East,82,1.0,5.0,88,0.00,,,0.02,Wunderground v.1.15,2013-05-06 05:56:00,
2013-05-05 23:01:00,57.2,53.7,29.78,ENE,69,1.0,3.0,88,0.00,,,0.02,Wunderground v.1.15,2013-05-06 06:01:00,
2013-05-05 23:06:00,57.3,53.5,29.78,East,95,1.0,4.0,87,0.00,,,0.02,Wunderground v.1.15,2013-05-06 06:06:00,
2013-05-05 23:11:00,57.3,53.1,29.78,NW,311,1.0,4.0,86,0.00,,,0.02,Wunderground v.1.15,2013-05-06 06:11:00,
2013-05-05 23:16:00,57.5,53.3,29.78,ESE,114,4.0,4.0,86,0.00,,,0.02,Wunderground v.1.15,2013-05-06 06:16:00,
2013-05-05 23:21:00,57.5,53.3,29.78,SE,141,0.0,3.0,86,0.00,,,0.02,Wunderground v.1.15,2013-05-06 06:21:00,
2013-05-05 23:26:00,57.5,53.3,29.78,ESE,105,3.0,5.0,86,0.00,,,0.02,Wunderground v.1.15,2013-05-06 06:26:00,
2013-05-05 23:31:00,57.5,53.3,29.77,ESE,102,2.0,5.0,86,0.00,,,0.02,Wunderground v.1.15,2013-05-06 06:31:00,
2013-05-05 23:36:00,57.5,53.3,29.77,East,92,2.0,6.0,86,0.00,,,0.02,Wunderground v.1.15,2013-05-06 06:36:00,
2013-05-05 23:41:00,57.6,53.1,29.77,SE,127,4.0,5.0,85,0.00,,,0.02,Wunderground v.1.15,2013-05-06 06:41:00,
2013-05-05 23:46:00,57.6,53.1,29.77,SE,131,1.0,7.0,85,0.00,,,0.02,Wunderground v.1.15,2013-05-06 06:46:00,
2013-05-05 23:51:00,57.8,53.3,29.77,East,89,0.0,4.0,85,0.00,,,0.02,Wunderground v.1.15,2013-05-06 06:51:00,
2013-05-05 23:56:00,57.6,53.1,29.77,East,98,2.0,6.0,85,0.00,,,0.02,Wunderground v.1.15,2013-05-06 06:56:00,